createdAt,value
2022-09-30T00:01:35.963Z,95021.31
2022-09-30T00:04:04.715Z,95024.66
2022-09-30T00:06:35.264Z,95019.69
2022-09-30T00:09:03.735Z,95027.38
2022-09-30T00:11:35.854Z,95029.94
2022-09-30T00:14:04.458Z,95020.50
2022-09-30T00:16:34.244Z,95029.28
2022-09-30T00:19:03.907Z,95039.69
2022-09-30T00:21:33.393Z,95030.69
2022-09-30T00:24:01.555Z,95037.28
2022-09-30T00:26:29.564Z,95040.00
2022-09-30T00:29:00.771Z,95033.94
2022-09-30T00:31:30.584Z,95034.72
2022-09-30T00:34:08.145Z,95035.53
2022-09-30T00:36:38.351Z,95031.78
2022-09-30T00:39:08.186Z,95029.88
2022-09-30T00:41:36.388Z,95023.94
2022-09-30T00:44:37.505Z,95028.28
2022-09-30T00:47:08.066Z,95034.34
2022-09-30T00:49:36.147Z,95031.78
2022-09-30T00:52:04.179Z,95042.19
2022-09-30T00:54:32.705Z,95046.25
2022-09-30T00:57:04.542Z,95048.66
2022-09-30T00:59:37.070Z,95059.31
2022-09-30T01:02:06.885Z,95066.97
2022-09-30T01:04:36.411Z,95059.56
2022-09-30T01:07:07.836Z,95062.91
2022-09-30T01:09:37.124Z,95066.16
2022-09-30T01:12:06.114Z,95060.88
2022-09-30T01:14:37.672Z,95059.13
2022-09-30T01:17:10.702Z,95065.72
2022-09-30T01:20:17.956Z,95064.47
2022-09-30T01:22:48.530Z,95068.34
2022-09-30T01:26:00.447Z,95069.81
2022-09-30T01:29:08.997Z,95068.34
2022-09-30T01:31:49.031Z,95071.22
2022-09-30T01:34:21.816Z,95067.31
2022-09-30T01:37:03.911Z,95054.06
2022-09-30T01:39:39.879Z,95069.38
2022-09-30T01:42:14.062Z,95070.84
2022-09-30T01:44:49.935Z,95066.34
2022-09-30T01:47:23.620Z,95072.66
2022-09-30T01:49:54.948Z,95081.00
2022-09-30T01:52:26.227Z,95083.19
2022-09-30T01:54:58.875Z,95093.97
2022-09-30T01:57:29.702Z,95094.78
2022-09-30T02:00:03.319Z,95082.66
2022-09-30T02:02:33.811Z,95092.09
2022-09-30T02:05:04.952Z,95084.91
2022-09-30T02:07:35.400Z,95074.50
2022-09-30T02:10:08.256Z,95082.56
2022-09-30T02:12:40.648Z,95078.91
2022-09-30T02:15:11.075Z,95084.03
2022-09-30T02:17:43.316Z,95083.22
2022-09-30T02:20:14.945Z,95078.25
2022-09-30T02:22:46.450Z,95082.56
2022-09-30T02:25:18.935Z,95082.03
2022-09-30T02:27:49.805Z,95071.19
2022-09-30T02:30:18.006Z,95086.72
2022-09-30T02:32:50.126Z,95091.84
2022-09-30T02:35:21.240Z,95088.16
2022-09-30T02:37:52.312Z,95084.53
2022-09-30T02:40:23.994Z,95091.13
2022-09-30T02:42:52.128Z,95090.69
2022-09-30T02:45:23.187Z,95090.41
2022-09-30T02:48:00.474Z,95090.41
2022-09-30T02:50:33.179Z,95087.16
2022-09-30T02:53:10.780Z,95088.94
2022-09-30T02:55:52.838Z,95092.28
2022-09-30T02:58:22.104Z,95097.72
2022-09-30T03:00:51.521Z,95096.13
2022-09-30T03:03:23.045Z,95103.28
2022-09-30T03:05:51.405Z,95104.66
2022-09-30T03:08:19.494Z,95111.53
2022-09-30T03:10:50.988Z,95119.06
2022-09-30T03:13:36.363Z,95128.78
2022-09-30T03:16:14.075Z,95121.56
2022-09-30T03:19:06.359Z,95126.53
2022-09-30T03:21:44.031Z,95133.13
2022-09-30T03:24:32.310Z,95142.44
2022-09-30T03:27:08.007Z,95125.31
2022-09-30T03:29:46.490Z,95128.00
2022-09-30T03:32:23.624Z,95130.56
2022-09-30T03:35:03.401Z,95133.41
2022-09-30T03:37:36.010Z,95139.63
2022-09-30T03:40:11.755Z,95142.06
2022-09-30T03:42:43.106Z,95151.06
2022-09-30T03:45:16.067Z,95161.19
2022-09-30T03:47:46.426Z,95168.72
2022-09-30T03:50:19.042Z,95167.63
2022-09-30T03:52:47.455Z,95176.13
2022-09-30T03:55:16.824Z,95176.25
2022-09-30T03:57:45.240Z,95185.69
2022-09-30T04:00:14.872Z,95188.72
2022-09-30T04:02:43.246Z,95177.94
2022-09-30T04:05:11.319Z,95182.25
2022-09-30T04:07:40.782Z,95177.94
2022-09-30T04:10:09.637Z,95182.25
2022-09-30T04:12:37.604Z,95185.47
2022-09-30T04:15:06.261Z,95187.09
2022-09-30T04:17:34.344Z,95194.13
2022-09-30T04:20:02.742Z,95191.56
2022-09-30T04:22:30.734Z,95195.19
2022-09-30T04:25:00.170Z,95197.63
2022-09-30T04:27:31.428Z,95208.16
2022-09-30T04:29:59.424Z,95192.19
2022-09-30T04:32:28.894Z,95212.25
2022-09-30T04:34:56.956Z,95219.09
2022-09-30T04:37:25.122Z,95210.25
2022-09-30T04:39:53.178Z,95204.63
2022-09-30T04:42:22.567Z,95228.34
2022-09-30T04:44:50.568Z,95231.44
2022-09-30T04:47:18.619Z,95222.63
2022-09-30T04:49:47.227Z,95219.84
2022-09-30T04:52:15.479Z,95233.94
2022-09-30T04:54:43.523Z,95222.78
2022-09-30T04:57:11.546Z,95240.53
2022-09-30T04:59:41.067Z,95247.13
2022-09-30T05:02:10.037Z,95244.41
2022-09-30T05:04:38.592Z,95247.81
2022-09-30T05:07:09.034Z,95253.75
2022-09-30T05:09:37.237Z,95244.56
2022-09-30T05:12:05.808Z,95258.56
2022-09-30T05:14:34.745Z,95250.88
2022-09-30T05:17:04.454Z,95257.38
2022-09-30T05:19:32.498Z,95263.59
2022-09-30T05:22:00.559Z,95266.88
2022-09-30T05:24:30.343Z,95260.59
2022-09-30T05:26:58.558Z,95277.81
2022-09-30T05:29:27.202Z,95286.44
2022-09-30T05:31:55.322Z,95288.34
2022-09-30T05:34:24.762Z,95293.88
2022-09-30T05:36:53.299Z,95296.44
2022-09-30T05:39:21.306Z,95306.41
2022-09-30T05:41:49.414Z,95299.41
2022-09-30T05:44:17.430Z,95311.50
2022-09-30T05:46:45.562Z,95312.84
2022-09-30T05:49:13.736Z,95314.97
2022-09-30T05:51:45.886Z,95324.69
2022-09-30T05:54:14.424Z,95327.94
2022-09-30T05:56:42.464Z,95325.06
2022-09-30T05:59:10.532Z,95327.34
2022-09-30T06:01:38.785Z,95324.13
2022-09-30T06:04:08.604Z,95336.94
2022-09-30T06:06:37.335Z,95334.22
2022-09-30T06:09:06.940Z,95334.13
2022-09-30T06:11:35.125Z,95328.06
2022-09-30T06:14:03.090Z,95331.97
2022-09-30T06:16:32.182Z,95339.22
2022-09-30T06:19:00.541Z,95349.88
2022-09-30T06:21:29.073Z,95346.63
2022-09-30T06:23:57.071Z,95348.13
2022-09-30T06:26:26.589Z,95352.44
2022-09-30T06:28:54.851Z,95354.19
2022-09-30T06:31:23.197Z,95351.50
2022-09-30T06:33:53.706Z,95360.81
2022-09-30T06:36:21.706Z,95361.63
2022-09-30T06:38:51.461Z,95364.75
2022-09-30T06:41:19.445Z,95369.47
2022-09-30T06:43:55.956Z,95366.31
2022-09-30T06:46:30.489Z,95359.84
2022-09-30T06:49:12.080Z,95369.41
2022-09-30T06:51:42.292Z,95371.81
2022-09-30T06:54:10.788Z,95378.44
2022-09-30T06:56:38.819Z,95380.56
2022-09-30T06:59:08.307Z,95383.81
2022-09-30T07:01:36.316Z,95377.16
2022-09-30T07:04:09.830Z,95374.97
2022-09-30T07:06:39.518Z,95388.19
2022-09-30T07:09:08.250Z,95386.69
2022-09-30T07:11:37.336Z,95384.44
2022-09-30T07:14:05.678Z,95386.41
2022-09-30T07:16:35.836Z,95386.78
2022-09-30T07:19:04.106Z,95387.31
2022-09-30T07:21:32.747Z,95380.53
2022-09-30T07:24:01.301Z,95371.44
2022-09-30T07:26:31.120Z,95392.09
2022-09-30T07:29:00.159Z,95393.50
2022-09-30T07:31:34.098Z,95400.72
2022-09-30T07:34:07.332Z,95404.88
2022-09-30T07:36:37.208Z,95403.44
2022-09-30T07:39:07.647Z,95414.22
2022-09-30T07:41:37.832Z,95415.03
2022-09-30T07:44:06.808Z,95425.31
2022-09-30T07:46:36.307Z,95423.84
2022-09-30T07:49:08.831Z,95436.81
2022-09-30T07:51:38.658Z,95437.88
2022-09-30T07:54:08.225Z,95422.94
2022-09-30T07:57:05.027Z,95436.97
2022-09-30T07:59:29.905Z,95442.75
2022-09-30T08:01:58.752Z,95451.66
2022-09-30T08:04:30.205Z,95456.63
2022-09-30T08:07:00.154Z,95440.47
2022-09-30T08:09:30.034Z,95459.88
2022-09-30T08:11:58.463Z,95466.91
2022-09-30T08:14:27.934Z,95469.06
2022-09-30T08:16:58.483Z,95476.41
2022-09-30T08:19:29.342Z,95472.78
2022-09-30T08:21:57.993Z,95467.44
2022-09-30T08:24:27.541Z,95471.00
2022-09-30T08:26:56.407Z,95466.75
2022-09-30T08:29:50.066Z,95476.56
2022-09-30T08:32:12.864Z,95485.31
2022-09-30T08:34:42.347Z,95483.69
2022-09-30T08:37:11.165Z,95482.50
2022-09-30T08:39:39.241Z,95487.34
2022-09-30T08:42:36.554Z,95488.00
2022-09-30T08:45:12.227Z,95491.81
2022-09-30T08:47:47.223Z,95495.16
2022-09-30T08:50:23.178Z,95503.38
2022-09-30T08:52:52.791Z,95503.13
2022-09-30T08:55:24.673Z,95509.19
2022-09-30T08:57:53.810Z,95508.41
2022-09-30T09:00:22.653Z,95506.47
2022-09-30T09:02:54.037Z,95509.03
2022-09-30T09:05:35.015Z,95510.84
2022-09-30T09:08:06.247Z,95520.97
2022-09-30T09:10:41.595Z,95520.06
2022-09-30T09:13:18.453Z,95525.22
2022-09-30T09:15:59.199Z,95526.00
2022-09-30T09:18:47.592Z,95529.91
2022-09-30T09:21:22.911Z,95532.19
2022-09-30T09:23:52.843Z,95533.81
2022-09-30T09:26:20.977Z,95530.78
2022-09-30T09:29:00.816Z,95525.00
2022-09-30T09:31:29.131Z,95523.91
2022-09-30T09:33:58.262Z,95519.63
2022-09-30T09:36:37.437Z,95537.28
2022-09-30T09:39:18.232Z,95539.84
2022-09-30T09:41:51.509Z,95536.59
2022-09-30T09:44:26.682Z,95537.28
2022-09-30T09:47:02.090Z,95536.53
2022-09-30T09:49:32.976Z,95542.03
2022-09-30T09:52:28.941Z,95551.59
2022-09-30T09:54:57.764Z,95553.09
2022-09-30T09:57:27.902Z,95552.13
2022-09-30T09:59:58.349Z,95567.69
2022-09-30T10:02:28.590Z,95560.88
2022-09-30T10:05:01.451Z,95564.63
2022-09-30T10:07:31.953Z,95556.75
2022-09-30T10:10:23.330Z,95559.84
2022-09-30T10:12:52.352Z,95562.41
2022-09-30T10:15:22.863Z,95554.84
2022-09-30T10:17:55.991Z,95581.56
2022-09-30T10:20:32.071Z,95576.66
2022-09-30T10:23:11.297Z,95593.13
2022-09-30T10:25:39.320Z,95593.56
2022-09-30T10:28:23.620Z,95591.41
2022-09-30T10:30:55.189Z,95592.59
2022-09-30T10:33:27.314Z,95593.94
2022-09-30T10:35:59.064Z,95578.94
2022-09-30T10:38:30.099Z,95591.38
2022-09-30T10:40:58.394Z,95600.78
2022-09-30T10:43:29.485Z,95600.41
2022-09-30T10:46:21.241Z,95591.34
2022-09-30T10:48:51.050Z,95604.09
2022-09-30T10:51:26.111Z,95605.38
2022-09-30T10:53:56.334Z,95600.88
2022-09-30T10:56:42.856Z,95601.00
2022-09-30T10:59:21.257Z,95597.56
2022-09-30T11:01:56.352Z,95599.16
2022-09-30T11:04:31.157Z,95592.84
2022-09-30T11:07:09.954Z,95590.28
2022-09-30T11:09:44.725Z,95591.81
2022-09-30T11:12:23.072Z,95593.88
2022-09-30T11:14:57.815Z,95591.78
2022-09-30T11:17:33.689Z,95585.66
2022-09-30T11:20:11.015Z,95577.72
2022-09-30T11:22:45.408Z,95589.78
2022-09-30T11:25:24.529Z,95600.09
2022-09-30T11:28:07.297Z,95604.66
2022-09-30T11:30:40.658Z,95604.03
2022-09-30T11:33:21.408Z,95603.84
2022-09-30T11:35:55.712Z,95614.88
2022-09-30T11:38:42.542Z,95629.78
2022-09-30T11:41:15.665Z,95630.44
2022-09-30T11:43:53.869Z,95619.94
2022-09-30T11:46:38.879Z,95623.22
2022-09-30T11:49:26.477Z,95618.38
2022-09-30T11:52:02.386Z,95620.47
2022-09-30T11:54:44.335Z,95626.59
2022-09-30T11:57:17.320Z,95630.00
2022-09-30T11:59:48.628Z,95633.53
2022-09-30T12:02:28.936Z,95628.09
2022-09-30T12:05:00.812Z,95635.19
2022-09-30T12:07:37.744Z,95638.78
2022-09-30T12:10:16.351Z,95632.03
2022-09-30T12:12:48.592Z,95642.91
2022-09-30T12:15:18.503Z,95641.44
2022-09-30T12:17:49.844Z,95634.19
2022-09-30T12:20:22.101Z,95625.09
2022-09-30T12:22:51.692Z,95631.34
2022-09-30T12:25:22.380Z,95622.03
2022-09-30T12:27:56.209Z,95617.91
2022-09-30T12:30:24.047Z,95622.00
2022-09-30T12:33:33.123Z,95618.47
2022-09-30T12:36:28.388Z,95624.28
2022-09-30T12:39:23.400Z,95623.84
2022-09-30T12:42:00.674Z,95629.16
2022-09-30T12:44:46.598Z,95634.16
2022-09-30T12:47:27.377Z,95626.88
2022-09-30T12:49:57.663Z,95625.59
2022-09-30T12:52:26.409Z,95633.00
2022-09-30T12:54:58.168Z,95632.69
2022-09-30T12:57:28.387Z,95619.28
2022-09-30T12:59:59.353Z,95621.06
2022-09-30T13:02:32.128Z,95619.47
2022-09-30T13:05:38.052Z,95624.00
2022-09-30T13:08:33.511Z,95620.91
2022-09-30T13:11:06.604Z,95619.81
2022-09-30T13:13:37.175Z,95618.50
2022-09-30T13:16:07.394Z,95624.31
2022-09-30T13:19:00.747Z,95634.81
2022-09-30T13:21:32.085Z,95630.94
2022-09-30T13:24:00.719Z,95627.22
2022-09-30T13:26:43.176Z,95630.63
2022-09-30T13:29:39.796Z,95628.81
2022-09-30T13:32:10.628Z,95624.47
2022-09-30T13:34:57.386Z,95625.47
2022-09-30T13:37:40.243Z,95625.94
2022-09-30T13:40:37.527Z,95635.63
2022-09-30T13:43:12.660Z,95634.00
2022-09-30T13:45:42.288Z,95624.00
2022-09-30T13:48:15.849Z,95630.09
2022-09-30T13:50:47.715Z,95630.41
2022-09-30T13:53:22.388Z,95635.94
2022-09-30T13:55:53.821Z,95646.75
2022-09-30T13:58:43.681Z,95647.25
2022-09-30T14:01:21.285Z,95649.50
2022-09-30T14:04:02.543Z,95642.06
2022-09-30T14:06:37.660Z,95646.75
2022-09-30T14:09:29.755Z,95652.25
2022-09-30T14:12:14.576Z,95640.78
2022-09-30T14:15:02.471Z,95635.44
2022-09-30T14:17:41.521Z,95645.94
2022-09-30T14:20:21.282Z,95652.38
2022-09-30T14:22:49.460Z,95649.66
2022-09-30T14:25:19.471Z,95655.59
2022-09-30T14:27:58.252Z,95641.72
2022-09-30T14:30:27.483Z,95649.78
2022-09-30T14:32:56.884Z,95643.31
2022-09-30T14:35:28.733Z,95644.78
2022-09-30T14:37:59.411Z,95638.44
2022-09-30T14:40:29.903Z,95638.91
2022-09-30T14:43:02.894Z,95610.19
2022-09-30T14:45:33.486Z,95632.47
2022-09-30T14:48:06.495Z,95631.44
2022-09-30T14:50:39.283Z,95623.31
2022-09-30T14:53:16.370Z,95622.94
2022-09-30T14:55:44.410Z,95617.50
2022-09-30T14:58:22.846Z,95625.59
2022-09-30T15:00:59.502Z,95614.63
2022-09-30T15:03:28.576Z,95620.44
2022-09-30T15:05:59.399Z,95627.66
2022-09-30T15:08:28.992Z,95638.91
2022-09-30T15:10:58.256Z,95634.19
2022-09-30T15:13:32.137Z,95628.69
2022-09-30T15:16:01.351Z,95629.19
2022-09-30T15:18:33.412Z,95626.72
2022-09-30T15:21:09.825Z,95636.41
2022-09-30T15:23:40.240Z,95609.56
2022-09-30T15:26:08.928Z,95633.16
2022-09-30T15:28:37.949Z,95638.25
2022-09-30T15:31:06.454Z,95632.25
2022-09-30T15:33:35.412Z,95636.41
2022-09-30T15:36:07.785Z,95646.22
2022-09-30T15:38:37.953Z,95650.38
2022-09-30T15:41:08.922Z,95652.63
2022-09-30T15:43:40.158Z,95660.00
2022-09-30T15:46:30.522Z,95656.13
2022-09-30T15:49:01.659Z,95644.44
2022-09-30T15:51:39.520Z,95658.78
2022-09-30T15:54:43.029Z,95663.75
2022-09-30T15:57:42.875Z,95666.13
2022-09-30T16:00:33.453Z,95669.78
2022-09-30T16:03:09.932Z,95669.44
2022-09-30T16:05:38.780Z,95679.66
2022-09-30T16:08:10.279Z,95692.47
2022-09-30T16:10:39.680Z,95690.47
2022-09-30T16:13:08.075Z,95691.09
2022-09-30T16:15:38.684Z,95689.38
2022-09-30T16:18:07.150Z,95686.75
2022-09-30T16:20:35.287Z,95692.63
2022-09-30T16:23:04.367Z,95693.72
2022-09-30T16:25:34.671Z,95699.97
2022-09-30T16:28:03.984Z,95694.44
2022-09-30T16:30:33.274Z,95691.66
2022-09-30T16:33:05.308Z,95696.56
2022-09-30T16:35:33.663Z,95701.50
2022-09-30T16:38:03.253Z,95708.00
2022-09-30T16:40:34.509Z,95702.63
2022-09-30T16:43:07.572Z,95706.44
2022-09-30T16:45:36.795Z,95698.88
2022-09-30T16:48:10.866Z,95704.31
2022-09-30T16:50:40.961Z,95703.63
2022-09-30T16:53:09.791Z,95709.06
2022-09-30T16:55:39.527Z,95715.97
2022-09-30T16:58:07.567Z,95703.50
2022-09-30T17:00:35.673Z,95712.50
2022-09-30T17:03:04.358Z,95706.69
2022-09-30T17:05:33.009Z,95705.63
2022-09-30T17:08:01.486Z,95710.38
2022-09-30T17:10:31.557Z,95713.75
2022-09-30T17:13:01.482Z,95720.81
2022-09-30T17:15:30.431Z,95721.22
2022-09-30T17:17:58.609Z,95716.50
2022-09-30T17:20:27.378Z,95701.91
2022-09-30T17:22:55.556Z,95720.03
2022-09-30T17:25:23.614Z,95721.63
2022-09-30T17:27:51.795Z,95728.00
2022-09-30T17:30:21.611Z,95730.97
2022-09-30T17:32:49.783Z,95721.13
2022-09-30T17:35:17.860Z,95739.38
2022-09-30T17:37:47.741Z,95738.41
2022-09-30T17:40:38.493Z,95740.31
2022-09-30T17:43:11.085Z,95738.28
2022-09-30T17:45:43.161Z,95752.63
2022-09-30T17:48:12.249Z,95746.81
2022-09-30T17:50:40.790Z,95749.78
2022-09-30T17:53:09.260Z,95748.81
2022-09-30T17:55:37.307Z,95752.34
2022-09-30T17:58:05.388Z,95744.50
2022-09-30T18:00:33.713Z,95747.06
2022-09-30T18:03:04.179Z,95751.53
2022-09-30T18:05:34.224Z,95749.63
2022-09-30T18:08:03.086Z,95750.44
2022-09-30T18:10:31.241Z,95747.88
2022-09-30T18:12:59.776Z,95741.78
2022-09-30T18:15:28.203Z,95742.44
2022-09-30T18:17:56.374Z,95739.19
2022-09-30T18:20:25.978Z,95737.59
2022-09-30T18:22:54.441Z,95748.81
2022-09-30T18:25:23.272Z,95750.59
2022-09-30T18:27:52.949Z,95758.44
2022-09-30T18:30:21.856Z,95762.22
2022-09-30T18:32:50.608Z,95756.84
2022-09-30T18:35:20.481Z,95761.19
2022-09-30T18:37:50.878Z,95754.81
2022-09-30T18:40:19.602Z,95756.28
2022-09-30T18:42:48.827Z,95748.59
2022-09-30T18:45:17.065Z,95745.72
2022-09-30T18:47:45.845Z,95739.00
2022-09-30T18:50:18.029Z,95743.16
2022-09-30T18:52:46.070Z,95742.19
2022-09-30T18:55:15.689Z,95741.41
2022-09-30T18:57:43.794Z,95738.72
2022-09-30T19:00:12.229Z,95742.50
2022-09-30T19:02:40.963Z,95738.47
2022-09-30T19:05:09.473Z,95737.09
2022-09-30T19:07:38.575Z,95731.28
2022-09-30T19:10:07.605Z,95730.75
2022-09-30T19:12:37.969Z,95735.50
2022-09-30T19:15:07.063Z,95740.34
2022-09-30T19:17:37.051Z,95733.88
2022-09-30T19:20:06.574Z,95725.63
2022-09-30T19:22:37.300Z,95722.81
2022-09-30T19:25:06.071Z,95718.75
2022-09-30T19:27:36.042Z,95729.16
2022-09-30T19:30:06.379Z,95732.53
2022-09-30T19:32:35.140Z,95729.31
2022-09-30T19:35:06.461Z,95726.59
2022-09-30T19:37:35.475Z,95712.56
2022-09-30T19:40:18.984Z,95728.19
2022-09-30T19:42:49.850Z,95729.31
2022-09-30T19:45:23.923Z,95731.72
2022-09-30T19:47:54.003Z,95713.09
2022-09-30T19:50:22.045Z,95734.72
2022-09-30T19:52:56.711Z,95738.75
2022-09-30T19:55:26.567Z,95742.41
2022-09-30T19:57:54.756Z,95739.44
2022-09-30T20:00:24.184Z,95731.22
2022-09-30T20:02:52.803Z,95723.50
2022-09-30T20:05:21.810Z,95726.59
2022-09-30T20:07:51.297Z,95725.94
2022-09-30T20:10:19.850Z,95731.22
2022-09-30T20:12:47.911Z,95721.72
2022-09-30T20:15:33.653Z,95730.66
2022-09-30T20:18:03.172Z,95731.44
2022-09-30T20:20:37.395Z,95727.28
2022-09-30T20:23:05.860Z,95721.47
2022-09-30T20:25:35.584Z,95720.66
2022-09-30T20:28:04.879Z,95713.34
2022-09-30T20:30:33.902Z,95708.50
2022-09-30T20:33:03.244Z,95713.22
2022-09-30T20:35:31.359Z,95706.88
2022-09-30T20:37:59.367Z,95697.81
2022-09-30T20:40:27.414Z,95709.59
2022-09-30T20:43:01.428Z,95705.41
2022-09-30T20:45:30.053Z,95697.94
2022-09-30T20:47:58.181Z,95698.34
2022-09-30T20:50:36.738Z,95703.75
2022-09-30T20:53:10.522Z,95701.63
2022-09-30T20:55:40.040Z,95698.78
2022-09-30T20:58:09.118Z,95717.28
2022-09-30T21:00:39.750Z,95723.22
2022-09-30T21:03:08.972Z,95707.69
2022-09-30T21:05:38.670Z,95720.38
2022-09-30T21:08:07.361Z,95729.03
2022-09-30T21:10:36.752Z,95723.75
2022-09-30T21:13:10.164Z,95723.75
2022-09-30T21:15:38.344Z,95726.31
2022-09-30T21:18:06.505Z,95728.19
2022-09-30T21:20:34.570Z,95724.84
2022-09-30T21:23:04.290Z,95719.03
2022-09-30T21:25:32.629Z,95726.72
2022-09-30T21:28:00.700Z,95737.81
2022-09-30T21:30:29.003Z,95740.63
2022-09-30T21:32:57.013Z,95739.56
2022-09-30T21:35:25.043Z,95737.81
2022-09-30T21:37:53.112Z,95742.81
2022-09-30T21:40:22.527Z,95740.50
2022-09-30T21:42:50.607Z,95746.44
2022-09-30T21:45:20.183Z,95739.25
2022-09-30T21:47:48.222Z,95746.03
2022-09-30T21:50:16.344Z,95757.50
2022-09-30T21:52:44.471Z,95746.03
2022-09-30T21:55:13.395Z,95745.63
2022-09-30T21:57:43.387Z,95746.31
2022-09-30T22:00:12.422Z,95744.56
2022-09-30T22:02:40.810Z,95743.88
2022-09-30T22:05:10.358Z,95739.84
2022-09-30T22:07:38.903Z,95741.31
2022-09-30T22:10:10.200Z,95742.00
2022-09-30T22:12:38.302Z,95751.16
2022-09-30T22:15:09.027Z,95755.75
2022-09-30T22:17:37.069Z,95753.41
2022-09-30T22:20:05.814Z,95758.09
2022-09-30T22:22:34.129Z,95767.41
2022-09-30T22:25:02.599Z,95759.56
2022-09-30T22:27:32.162Z,95754.03
2022-09-30T22:30:00.487Z,95752.59
2022-09-30T22:32:29.965Z,95755.69
2022-09-30T22:35:15.435Z,95758.25
2022-09-30T22:38:00.638Z,95755.69
2022-09-30T22:40:28.777Z,95765.97
2022-09-30T22:42:57.862Z,95774.88
2022-09-30T22:45:26.007Z,95769.88
2022-09-30T22:47:56.992Z,95774.19
2022-09-30T22:50:26.302Z,95774.19
2022-09-30T22:52:54.347Z,95775.94
2022-09-30T22:55:22.411Z,95775.13
2022-09-30T22:57:50.453Z,95771.63
2022-09-30T23:00:18.512Z,95773.09
2022-09-30T23:02:46.531Z,95766.50
2022-09-30T23:05:16.041Z,95765.41
2022-09-30T23:07:44.059Z,95765.69
2022-09-30T23:10:12.072Z,95765.94
2022-09-30T23:12:40.566Z,95769.16
2022-09-30T23:15:09.281Z,95782.22
2022-09-30T23:17:37.313Z,95778.44
2022-09-30T23:20:06.077Z,95787.16
2022-09-30T23:22:35.450Z,95790.31
2022-09-30T23:25:03.439Z,95790.19
2022-09-30T23:27:31.436Z,95788.41
2022-09-30T23:29:59.437Z,95786.53
2022-09-30T23:32:28.122Z,95778.94
2022-09-30T23:34:56.112Z,95792.31
2022-09-30T23:37:24.163Z,95790.75
2022-09-30T23:39:53.518Z,95791.38
2022-09-30T23:42:21.517Z,95795.25
2022-09-30T23:44:49.496Z,95794.47
2022-09-30T23:47:20.124Z,95798.78
2022-09-30T23:49:48.185Z,95802.16
2022-09-30T23:52:17.128Z,95796.09
2022-09-30T23:54:45.435Z,95801.78
2022-09-30T23:57:14.884Z,95793.13
2022-09-30T23:59:42.884Z,95793.13
